Time;durP1;ratioP1;P1;durP2;ratioP2;P2;SDS_P1;SDS_P2;PMS_P1;PMS_P2;Temp;Humidity;BMP_temperature;BMP_pressure;BME280_temperature;BME280_humidity;BME280_pressure;Samples;Min_cycle;Max_cycle;Signal;HPM_P1;HPM_P2
2023/10/22 00:02:25;;;;;;;6.63;2.10;;;;;;;;;;5049090;28;20088;-64
2023/10/22 00:04:50;;;;;;;6.13;1.05;;;;;;;;;;5049142;28;20480;-64
2023/10/22 00:07:18;;;;;;;5.70;1.35;;;;;;;;;;5049056;28;20040;-63
2023/10/22 00:09:44;;;;;;;6.95;1.20;;;;;;;;;;5049070;28;20049;-63
2023/10/22 00:12:11;;;;;;;3.20;1.05;;;;;;;;;;5048803;28;20123;-63
2023/10/22 00:14:37;;;;;;;4.97;1.30;;;;;;;;;;5048886;28;20049;-63
2023/10/22 00:17:03;;;;;;;3.97;1.05;;;;;;;;;;5048769;28;20120;-63
2023/10/22 00:19:29;;;;;;;3.72;1.10;;;;;;;;;;5048218;28;20051;-63
2023/10/22 00:21:55;;;;;;;5.38;1.75;;;;;;;;;;5049052;28;20040;-63
2023/10/22 00:24:21;;;;;;;3.42;1.17;;;;;;;;;;5048835;28;20416;-63
2023/10/22 00:26:47;;;;;;;5.43;1.10;;;;;;;;;;5048354;28;20037;-63
2023/10/22 00:29:13;;;;;;;4.30;1.20;;;;;;;;;;5048550;28;20072;-63
2023/10/22 00:31:39;;;;;;;1.83;0.82;;;;;;;;;;5048930;28;20072;-63
2023/10/22 00:34:06;;;;;;;3.83;1.13;;;;;;;;;;5048323;28;20049;-63
2023/10/22 00:36:32;;;;;;;5.38;1.40;;;;;;;;;;5048739;28;20423;-63
2023/10/22 00:38:58;;;;;;;4.32;1.40;;;;;;;;;;5048732;28;20037;-63
2023/10/22 00:41:24;;;;;;;5.85;1.45;;;;;;;;;;5048354;28;20075;-63
2023/10/22 00:43:50;;;;;;;8.05;1.30;;;;;;;;;;5048787;28;20044;-63
2023/10/22 00:46:18;;;;;;;6.05;1.27;;;;;;;;;;5048569;28;20116;-63
2023/10/22 00:48:44;;;;;;;5.45;1.00;;;;;;;;;;5048326;28;20095;-63
2023/10/22 00:51:10;;;;;;;3.60;0.90;;;;;;;;;;5048748;28;20087;-63
2023/10/22 00:53:37;;;;;;;3.70;1.08;;;;;;;;;;5030527;28;20392;-63
2023/10/22 00:56:05;;;;;;;4.93;0.90;;;;;;;;;;5048171;28;20041;-63
2023/10/22 00:58:32;;;;;;;3.22;0.95;;;;;;;;;;5048739;28;20513;-63
2023/10/22 01:00:58;;;;;;;3.92;1.00;;;;;;;;;;5048627;28;20045;-63
2023/10/22 01:03:24;;;;;;;7.63;1.17;;;;;;;;;;5048351;28;20037;-63
2023/10/22 01:05:50;;;;;;;4.88;0.90;;;;;;;;;;5048529;28;20495;-63
2023/10/22 01:08:16;;;;;;;4.65;1.02;;;;;;;;;;5048804;28;20041;-63
2023/10/22 01:10:42;;;;;;;4.05;1.13;;;;;;;;;;5048178;28;20041;-63
2023/10/22 01:13:08;;;;;;;3.80;0.98;;;;;;;;;;5048580;28;20044;-63
2023/10/22 01:15:34;;;;;;;5.47;1.00;;;;;;;;;;5048733;28;20041;-63
2023/10/22 01:18:00;;;;;;;3.38;0.70;;;;;;;;;;5047865;28;20045;-63
2023/10/22 01:20:26;;;;;;;4.07;0.77;;;;;;;;;;5050118;28;20303;-63
2023/10/22 01:22:52;;;;;;;3.50;0.80;;;;;;;;;;5052281;28;20076;-63
2023/10/22 01:25:18;;;;;;;4.20;1.13;;;;;;;;;;5051586;28;20037;-63
2023/10/22 01:27:44;;;;;;;4.13;0.98;;;;;;;;;;5052134;28;20442;-63
2023/10/22 01:30:11;;;;;;;3.40;0.90;;;;;;;;;;5052078;28;20044;-63
2023/10/22 01:32:37;;;;;;;4.25;1.10;;;;;;;;;;5051679;28;20488;-63
2023/10/22 01:35:03;;;;;;;4.65;1.00;;;;;;;;;;5052118;28;20079;-63
2023/10/22 01:37:29;;;;;;;6.72;1.08;;;;;;;;;;5051999;28;20041;-63
2023/10/22 01:39:57;;;;;;;5.80;1.38;;;;;;;;;;5051164;28;20471;-63
2023/10/22 01:42:23;;;;;;;4.65;1.00;;;;;;;;;;5033673;28;20084;-63
2023/10/22 01:44:49;;;;;;;2.00;0.80;;;;;;;;;;5051933;28;20044;-63
2023/10/22 01:47:15;;;;;;;4.68;0.80;;;;;;;;;;5050966;28;20432;-63
2023/10/22 01:49:42;;;;;;;3.72;1.50;;;;;;;;;;5051886;28;20077;-63
2023/10/22 01:52:10;;;;;;;2.60;0.90;;;;;;;;;;5051806;28;20083;-63
2023/10/22 01:54:36;;;;;;;3.83;1.00;;;;;;;;;;5050896;28;20529;-63
2023/10/22 01:57:02;;;;;;;2.78;0.82;;;;;;;;;;5051395;28;20132;-63
2023/10/22 01:59:28;;;;;;;6.65;1.00;;;;;;;;;;5051242;28;20457;-63
2023/10/22 02:01:54;;;;;;;3.35;1.13;;;;;;;;;;5051546;28;20041;-63
2023/10/22 02:04:20;;;;;;;6.07;1.00;;;;;;;;;;5051250;28;20041;-63
2023/10/22 02:06:46;;;;;;;2.60;0.90;;;;;;;;;;5051207;28;20118;-63
2023/10/22 02:09:14;;;;;;;4.93;1.20;;;;;;;;;;5051182;28;20111;-63
2023/10/22 02:11:40;;;;;;;1.52;0.75;;;;;;;;;;5051018;28;20171;-63
2023/10/22 02:14:06;;;;;;;8.40;1.25;;;;;;;;;;5051201;28;20075;-63
2023/10/22 02:16:32;;;;;;;2.45;1.05;;;;;;;;;;5033289;28;20076;-63
2023/10/22 02:18:58;;;;;;;4.65;1.10;;;;;;;;;;5050618;28;20032;-63
2023/10/22 02:21:26;;;;;;;4.20;1.30;;;;;;;;;;5051178;28;20048;-63
2023/10/22 02:23:52;;;;;;;3.00;1.17;;;;;;;;;;5051114;28;20429;-63
2023/10/22 02:26:19;;;;;;;7.53;1.50;;;;;;;;;;5050545;28;20041;-63
2023/10/22 02:28:46;;;;;;;4.20;1.63;;;;;;;;;;5050979;28;20212;-63
2023/10/22 02:31:12;;;;;;;6.00;1.35;;;;;;;;;;5031980;28;20053;-63
2023/10/22 02:33:39;;;;;;;4.53;1.52;;;;;;;;;;5050084;28;20467;-63
2023/10/22 02:36:06;;;;;;;6.75;1.55;;;;;;;;;;5032833;28;20048;-63
2023/10/22 02:38:33;;;;;;;6.68;1.48;;;;;;;;;;5050847;28;20044;-63
2023/10/22 02:40:59;;;;;;;6.45;1.60;;;;;;;;;;5050491;28;20128;-63
2023/10/22 02:43:25;;;;;;;6.32;1.80;;;;;;;;;;5050945;28;20041;-63
2023/10/22 02:45:55;;;;;;;6.53;1.67;;;;;;;;;;5050651;28;20037;-63
2023/10/22 02:48:23;;;;;;;6.38;1.38;;;;;;;;;;5050134;28;20087;-63
2023/10/22 02:50:49;;;;;;;3.83;1.33;;;;;;;;;;5050418;28;20137;-63
2023/10/22 02:53:16;;;;;;;6.25;1.25;;;;;;;;;;5050215;28;20095;-63
2023/10/22 02:55:42;;;;;;;4.60;1.10;;;;;;;;;;5050157;28;20530;-63
2023/10/22 02:58:08;;;;;;;5.47;1.70;;;;;;;;;;5050350;28;20050;-63
2023/10/22 03:00:35;;;;;;;6.45;1.35;;;;;;;;;;5050692;28;20470;-63
2023/10/22 03:03:01;;;;;;;3.10;1.20;;;;;;;;;;5050044;28;20127;-63
2023/10/22 03:05:27;;;;;;;6.80;1.48;;;;;;;;;;5050481;28;20044;-63
2023/10/22 03:07:53;;;;;;;3.13;1.20;;;;;;;;;;5050245;28;20045;-63
2023/10/22 03:10:19;;;;;;;3.53;1.20;;;;;;;;;;5050250;28;20037;-63
2023/10/22 03:12:45;;;;;;;2.45;1.30;;;;;;;;;;5050343;28;20037;-63
2023/10/22 03:15:11;;;;;;;3.25;1.30;;;;;;;;;;5050166;28;20037;-63
2023/10/22 03:17:38;;;;;;;6.18;1.30;;;;;;;;;;5049621;28;20079;-63
2023/10/22 03:20:05;;;;;;;4.95;1.38;;;;;;;;;;5049901;28;20055;-63
2023/10/22 03:22:31;;;;;;;4.82;1.30;;;;;;;;;;5050028;28;20094;-63
2023/10/22 03:24:57;;;;;;;6.90;1.70;;;;;;;;;;5049790;28;20052;-63
2023/10/22 03:27:23;;;;;;;5.75;1.55;;;;;;;;;;5049496;28;20487;-63
2023/10/22 03:29:49;;;;;;;4.63;1.45;;;;;;;;;;5049848;28;20052;-63
2023/10/22 03:32:15;;;;;;;4.70;1.27;;;;;;;;;;5049599;28;20049;-63
2023/10/22 03:34:41;;;;;;;2.92;1.27;;;;;;;;;;5049744;28;20044;-63
2023/10/22 03:37:08;;;;;;;4.28;1.42;;;;;;;;;;5049872;28;20051;-63
2023/10/22 03:39:36;;;;;;;7.40;1.67;;;;;;;;;;5049207;28;20052;-63
2023/10/22 03:42:02;;;;;;;5.90;1.63;;;;;;;;;;5049581;28;20048;-63
2023/10/22 03:44:29;;;;;;;2.95;1.40;;;;;;;;;;5049550;28;20045;-63
2023/10/22 03:46:55;;;;;;;2.75;1.35;;;;;;;;;;5049112;28;20045;-63
2023/10/22 03:49:21;;;;;;;6.55;1.83;;;;;;;;;;5049489;28;20037;-63
2023/10/22 03:51:47;;;;;;;5.45;1.50;;;;;;;;;;5049641;28;20076;-63
2023/10/22 03:54:13;;;;;;;4.35;1.20;;;;;;;;;;5048714;28;20073;-63
2023/10/22 03:56:39;;;;;;;3.38;1.27;;;;;;;;;;5049176;28;20116;-63
2023/10/22 03:59:05;;;;;;;4.63;1.70;;;;;;;;;;5049338;28;20029;-63
2023/10/22 04:01:31;;;;;;;3.03;1.58;;;;;;;;;;5048898;28;20080;-63
2023/10/22 04:03:57;;;;;;;5.45;1.30;;;;;;;;;;5049299;28;20060;-63
2023/10/22 04:06:23;;;;;;;4.03;1.80;;;;;;;;;;5048965;28;20439;-63
2023/10/22 04:08:49;;;;;;;3.58;1.70;;;;;;;;;;5048778;28;20067;-63
2023/10/22 04:11:18;;;;;;;3.88;1.35;;;;;;;;;;5049449;28;20044;-63
2023/10/22 04:13:44;;;;;;;3.63;2.00;;;;;;;;;;5049168;28;20032;-63
2023/10/22 04:16:17;;;;;;;3.72;1.40;;;;;;;;;;5048719;28;20108;-63
2023/10/22 04:18:43;;;;;;;3.70;2.08;;;;;;;;;;5049018;28;20395;-63
2023/10/22 04:21:13;;;;;;;5.47;1.80;;;;;;;;;;5049084;28;20509;-63
2023/10/22 04:23:39;;;;;;;3.35;1.90;;;;;;;;;;5048656;28;20052;-63
2023/10/22 04:26:06;;;;;;;4.80;2.30;;;;;;;;;;5048489;28;20192;-63
2023/10/22 04:28:32;;;;;;;3.90;2.28;;;;;;;;;;5048911;28;20470;-63
2023/10/22 04:30:58;;;;;;;2.30;2.10;;;;;;;;;;5048587;28;20033;-63
2023/10/22 04:33:24;;;;;;;6.57;2.80;;;;;;;;;;5048891;28;20396;-63
2023/10/22 04:35:50;;;;;;;4.95;2.10;;;;;;;;;;5048708;28;20125;-64
2023/10/22 04:38:16;;;;;;;3.75;2.40;;;;;;;;;;5048286;28;20044;-64
2023/10/22 04:40:42;;;;;;;4.63;2.13;;;;;;;;;;5048726;28;20036;-64
2023/10/22 04:43:08;;;;;;;4.40;2.33;;;;;;;;;;5048779;28;20044;-63
2023/10/22 04:45:34;;;;;;;3.00;2.10;;;;;;;;;;5048046;28;20041;-63
2023/10/22 04:48:00;;;;;;;3.50;2.05;;;;;;;;;;5030388;28;20090;-63
2023/10/22 04:50:26;;;;;;;5.82;2.10;;;;;;;;;;5048732;28;20403;-63
2023/10/22 04:52:52;;;;;;;3.53;1.95;;;;;;;;;;5047885;28;20044;-63
2023/10/22 04:55:18;;;;;;;3.90;1.70;;;;;;;;;;5049951;28;20045;-63
2023/10/22 04:57:44;;;;;;;2.38;1.90;;;;;;;;;;5053060;28;20041;-63
2023/10/22 05:00:10;;;;;;;2.25;1.58;;;;;;;;;;5052162;28;20044;-63
2023/10/22 05:02:37;;;;;;;2.17;1.65;;;;;;;;;;5052654;28;20044;-63
2023/10/22 05:05:03;;;;;;;2.67;1.73;;;;;;;;;;5052651;28;20091;-63
2023/10/22 05:07:29;;;;;;;3.38;2.58;;;;;;;;;;5051755;28;20312;-63
2023/10/22 05:09:55;;;;;;;2.35;1.80;;;;;;;;;;5052666;28;20139;-63
2023/10/22 05:12:21;;;;;;;3.03;1.70;;;;;;;;;;5052252;28;20328;-63
2023/10/22 05:14:47;;;;;;;3.83;2.10;;;;;;;;;;5052004;28;20481;-63
2023/10/22 05:17:13;;;;;;;1.98;1.77;;;;;;;;;;5052186;28;20320;-63
2023/10/22 05:19:39;;;;;;;2.15;1.95;;;;;;;;;;5052466;28;20455;-63
2023/10/22 05:22:05;;;;;;;3.92;2.08;;;;;;;;;;5051923;28;20049;-63
2023/10/22 05:24:31;;;;;;;4.60;2.20;;;;;;;;;;5052378;28;20041;-63
2023/10/22 05:26:57;;;;;;;4.07;2.72;;;;;;;;;;5051911;28;20466;-63
2023/10/22 05:29:23;;;;;;;3.72;2.50;;;;;;;;;;5051879;28;20047;-63
2023/10/22 05:31:50;;;;;;;2.42;2.22;;;;;;;;;;5051864;28;20044;-63
2023/10/22 05:34:16;;;;;;;2.63;2.08;;;;;;;;;;5051787;28;20049;-63
2023/10/22 05:36:42;;;;;;;3.85;2.13;;;;;;;;;;5051724;28;20033;-63
2023/10/22 05:39:08;;;;;;;1.52;1.35;;;;;;;;;;5052253;28;20040;-63
2023/10/22 05:41:34;;;;;;;3.03;1.50;;;;;;;;;;5052082;28;20044;-63
2023/10/22 05:44:01;;;;;;;1.52;1.23;;;;;;;;;;5051652;28;20086;-63
2023/10/22 05:46:33;;;;;;;2.17;1.10;;;;;;;;;;5051632;28;20115;-63
2023/10/22 05:49:00;;;;;;;2.00;0.85;;;;;;;;;;5051746;28;20044;-64
2023/10/22 05:51:26;;;;;;;1.27;1.00;;;;;;;;;;5051351;28;20052;-64
2023/10/22 05:53:52;;;;;;;3.08;0.80;;;;;;;;;;5051443;28;20115;-63
2023/10/22 05:56:18;;;;;;;3.03;1.05;;;;;;;;;;5051515;28;20309;-63
2023/10/22 05:58:44;;;;;;;3.67;1.20;;;;;;;;;;5051150;28;20048;-64
2023/10/22 06:01:11;;;;;;;4.65;1.25;;;;;;;;;;5051287;28;20044;-64
2023/10/22 06:03:37;;;;;;;2.58;0.98;;;;;;;;;;5051471;28;20037;-64
2023/10/22 06:06:03;;;;;;;7.22;1.50;;;;;;;;;;5050843;28;20038;-64
2023/10/22 06:08:29;;;;;;;3.67;1.52;;;;;;;;;;5051016;28;20124;-64
2023/10/22 06:10:55;;;;;;;4.20;1.10;;;;;;;;;;5051276;28;20108;-64
2023/10/22 06:13:21;;;;;;;3.08;1.02;;;;;;;;;;5051396;28;20044;-64
2023/10/22 06:15:47;;;;;;;4.10;1.40;;;;;;;;;;5050564;28;20049;-64
2023/10/22 06:18:13;;;;;;;3.25;1.42;;;;;;;;;;5051078;28;20511;-64
2023/10/22 06:20:39;;;;;;;3.67;1.30;;;;;;;;;;5051237;28;20091;-64
2023/10/22 06:23:06;;;;;;;3.70;1.40;;;;;;;;;;5051137;28;20458;-64
2023/10/22 06:25:33;;;;;;;2.55;1.60;;;;;;;;;;5051076;28;20037;-64
2023/10/22 06:27:59;;;;;;;10.30;1.90;;;;;;;;;;5051113;28;20053;-64
2023/10/22 06:30:26;;;;;;;3.63;1.70;;;;;;;;;;5050585;28;20128;-64
2023/10/22 06:32:52;;;;;;;5.35;2.08;;;;;;;;;;5050735;28;20036;-64
2023/10/22 06:35:23;;;;;;;3.97;2.20;;;;;;;;;;5050682;28;20506;-64
2023/10/22 06:37:53;;;;;;;10.90;2.22;;;;;;;;;;5050497;28;20045;-64
2023/10/22 06:40:19;;;;;;;6.20;2.33;;;;;;;;;;5050835;28;20049;-64
2023/10/22 06:42:45;;;;;;;5.20;2.50;;;;;;;;;;5050756;28;20257;-64
2023/10/22 06:45:11;;;;;;;7.40;2.67;;;;;;;;;;5050479;28;20041;-64
2023/10/22 06:47:38;;;;;;;6.10;2.72;;;;;;;;;;5032563;28;20095;-64
2023/10/22 06:50:13;;;;;;;9.38;3.25;;;;;;;;;;5050523;28;20264;-64
2023/10/22 06:52:42;;;;;;;9.20;3.38;;;;;;;;;;5050058;28;20103;-64
2023/10/22 06:55:08;;;;;;;6.13;4.00;;;;;;;;;;5050503;28;20044;-64
2023/10/22 06:57:34;;;;;;;9.73;4.35;;;;;;;;;;5050732;28;20487;-64
2023/10/22 07:00:00;;;;;;;12.88;5.38;;;;;;;;;;5050082;28;20037;-64
2023/10/22 07:02:26;;;;;;;11.82;5.15;;;;;;;;;;5050457;28;20055;-64
2023/10/22 07:04:53;;;;;;;13.60;5.07;;;;;;;;;;5050486;28;20082;-64
2023/10/22 07:07:19;;;;;;;11.88;4.50;;;;;;;;;;5049509;28;20038;-64
2023/10/22 07:09:45;;;;;;;16.05;5.00;;;;;;;;;;5050327;28;20116;-64
2023/10/22 07:12:11;;;;;;;11.77;4.65;;;;;;;;;;5032388;28;20179;-64
2023/10/22 07:14:37;;;;;;;12.63;4.80;;;;;;;;;;5049528;28;20041;-64
2023/10/22 07:17:03;;;;;;;8.23;4.80;;;;;;;;;;5049796;28;20056;-64
2023/10/22 07:19:29;;;;;;;10.98;5.50;;;;;;;;;;5049206;28;20056;-64
2023/10/22 07:21:55;;;;;;;12.13;5.03;;;;;;;;;;5049867;28;20041;-64
2023/10/22 07:24:21;;;;;;;19.20;5.65;;;;;;;;;;5050337;28;20053;-64
2023/10/22 07:26:47;;;;;;;12.57;5.30;;;;;;;;;;5049953;28;20044;-64
2023/10/22 07:29:14;;;;;;;10.65;4.78;;;;;;;;;;5049873;28;20045;-64
2023/10/22 07:31:40;;;;;;;7.13;3.58;;;;;;;;;;5049900;28;20045;-64
2023/10/22 07:34:07;;;;;;;10.23;4.00;;;;;;;;;;5049587;28;20087;-64
2023/10/22 07:36:32;;;;;;;7.53;3.53;;;;;;;;;;5031525;28;20041;-64
2023/10/22 07:38:58;;;;;;;8.27;3.72;;;;;;;;;;5049635;28;20368;-64
2023/10/22 07:41:25;;;;;;;8.88;3.40;;;;;;;;;;5049609;28;20048;-64
2023/10/22 07:43:51;;;;;;;7.45;3.63;;;;;;;;;;5049373;28;20496;-64
2023/10/22 07:46:17;;;;;;;8.35;3.63;;;;;;;;;;5049181;28;20048;-64
2023/10/22 07:48:44;;;;;;;9.02;3.72;;;;;;;;;;5049435;28;20044;-64
2023/10/22 07:51:17;;;;;;;6.13;3.35;;;;;;;;;;5049068;28;20103;-64
2023/10/22 07:53:43;;;;;;;9.60;3.40;;;;;;;;;;5049116;28;20059;-64
2023/10/22 07:56:10;;;;;;;6.70;3.70;;;;;;;;;;5049328;28;20041;-64
2023/10/22 07:58:37;;;;;;;8.50;3.83;;;;;;;;;;5048923;28;20434;-64
2023/10/22 08:01:06;;;;;;;9.18;3.40;;;;;;;;;;5049380;28;20041;-64
2023/10/22 08:03:32;;;;;;;15.23;4.25;;;;;;;;;;5049386;28;20045;-64
2023/10/22 08:05:59;;;;;;;6.78;3.83;;;;;;;;;;5048769;28;20265;-64
2023/10/22 08:08:25;;;;;;;7.88;3.88;;;;;;;;;;5048894;28;20037;-64
2023/10/22 08:10:51;;;;;;;9.48;3.78;;;;;;;;;;5049198;28;20037;-64
2023/10/22 08:13:20;;;;;;;9.05;3.58;;;;;;;;;;5048928;28;20048;-64
2023/10/22 08:15:47;;;;;;;6.20;3.58;;;;;;;;;;5049174;28;20400;-63
2023/10/22 08:18:13;;;;;;;9.77;3.63;;;;;;;;;;5048955;28;20052;-63
2023/10/22 08:20:39;;;;;;;7.10;3.42;;;;;;;;;;5048796;28;20041;-63
2023/10/22 08:23:05;;;;;;;7.40;3.17;;;;;;;;;;5049113;28;20051;-63
2023/10/22 08:25:31;;;;;;;11.63;4.05;;;;;;;;;;5048911;28;20387;-63
2023/10/22 08:27:57;;;;;;;12.95;3.97;;;;;;;;;;5048358;28;20045;-63
2023/10/22 08:30:23;;;;;;;9.60;3.55;;;;;;;;;;5048704;28;20037;-63
2023/10/22 08:32:49;;;;;;;7.03;3.53;;;;;;;;;;5049060;28;20045;-63
2023/10/22 08:35:15;;;;;;;6.88;3.63;;;;;;;;;;5048283;28;20055;-63
2023/10/22 08:37:41;;;;;;;11.13;3.97;;;;;;;;;;5031156;28;20044;-63
2023/10/22 08:40:08;;;;;;;6.80;3.80;;;;;;;;;;5048392;28;20047;-63
2023/10/22 08:42:35;;;;;;;8.45;3.70;;;;;;;;;;5048466;28;20044;-63
2023/10/22 08:45:01;;;;;;;7.82;3.63;;;;;;;;;;5048878;28;20040;-63
2023/10/22 08:47:28;;;;;;;8.15;3.40;;;;;;;;;;5048706;28;20037;-63
2023/10/22 08:49:55;;;;;;;12.02;3.80;;;;;;;;;;5030414;28;20507;-63
2023/10/22 08:52:22;;;;;;;7.47;3.15;;;;;;;;;;5048887;28;20259;-63
2023/10/22 08:54:48;;;;;;;9.20;3.60;;;;;;;;;;5048249;28;20056;-63
2023/10/22 08:57:15;;;;;;;10.18;3.38;;;;;;;;;;5048208;28;20071;-63
2023/10/22 08:59:41;;;;;;;6.20;3.35;;;;;;;;;;5048487;28;20045;-63
2023/10/22 09:02:11;;;;;;;7.45;3.22;;;;;;;;;;5048663;28;20045;-63
2023/10/22 09:04:38;;;;;;;12.02;3.30;;;;;;;;;;5048196;28;20041;-63
2023/10/22 09:07:04;;;;;;;10.52;3.58;;;;;;;;;;5030271;28;20101;-63
2023/10/22 09:09:31;;;;;;;7.53;3.40;;;;;;;;;;5048523;28;20382;-63
2023/10/22 09:11:57;;;;;;;6.53;2.95;;;;;;;;;;5048263;28;20056;-63
2023/10/22 09:14:24;;;;;;;7.07;3.38;;;;;;;;;;5048495;28;20051;-63
2023/10/22 09:16:50;;;;;;;6.50;3.00;;;;;;;;;;5048294;28;20044;-63
2023/10/22 09:19:36;;;;;;;10.57;3.58;;;;;;;;;;5047886;28;20044;-63
2023/10/22 09:22:03;;;;;;;10.40;2.92;;;;;;;;;;5048480;28;20040;-63
2023/10/22 09:24:29;;;;;;;8.98;2.95;;;;;;;;;;5048491;28;20041;-63
2023/10/22 09:26:55;;;;;;;6.45;3.15;;;;;;;;;;5047486;28;20049;-63
2023/10/22 09:29:21;;;;;;;6.80;2.20;;;;;;;;;;5048351;28;20053;-63
2023/10/22 09:31:51;;;;;;;6.68;2.70;;;;;;;;;;5048238;28;20045;-63
2023/10/22 09:34:26;;;;;;;3.55;1.92;;;;;;;;;;5048013;28;20041;-63
2023/10/22 09:36:55;;;;;;;7.70;2.13;;;;;;;;;;5048578;28;20037;-63
2023/10/22 09:39:37;;;;;;;4.15;2.08;;;;;;;;;;5048259;28;20044;-63
2023/10/22 09:42:04;;;;;;;6.47;2.03;;;;;;;;;;5050301;28;20488;-63
2023/10/22 09:44:31;;;;;;;3.05;1.88;;;;;;;;;;5052010;28;20033;-63
2023/10/22 09:47:00;;;;;;;4.22;2.00;;;;;;;;;;5051522;28;20053;-63
2023/10/22 09:49:29;;;;;;;7.25;2.20;;;;;;;;;;5051196;28;20045;-63
2023/10/22 09:51:55;;;;;;;5.57;1.73;;;;;;;;;;5051756;28;20099;-63
2023/10/22 09:54:22;;;;;;;3.30;1.38;;;;;;;;;;5051503;28;20496;-63
2023/10/22 09:56:51;;;;;;;8.60;2.00;;;;;;;;;;5051357;28;20298;-63
2023/10/22 09:59:20;;;;;;;5.32;1.92;;;;;;;;;;5051576;28;20395;-63
2023/10/22 10:01:47;;;;;;;4.93;1.65;;;;;;;;;;5051626;28;20239;-63
2023/10/22 10:04:14;;;;;;;8.52;1.95;;;;;;;;;;5051022;28;20159;-63
2023/10/22 10:06:40;;;;;;;5.05;1.65;;;;;;;;;;5051363;28;20044;-63
2023/10/22 10:09:06;;;;;;;5.00;1.63;;;;;;;;;;5051469;28;20230;-63
2023/10/22 10:11:32;;;;;;;3.83;1.42;;;;;;;;;;5051149;28;20119;-63
2023/10/22 10:13:58;;;;;;;11.95;1.77;;;;;;;;;;5051329;28;20037;-63
2023/10/22 10:16:25;;;;;;;2.88;1.60;;;;;;;;;;5051131;28;20044;-63
2023/10/22 10:19:00;;;;;;;4.57;1.73;;;;;;;;;;5050742;28;20484;-63
2023/10/22 10:21:43;;;;;;;3.60;1.73;;;;;;;;;;5051226;28;20037;-63
2023/10/22 10:24:16;;;;;;;4.53;1.30;;;;;;;;;;5051400;28;20076;-63
2023/10/22 10:26:43;;;;;;;6.90;1.17;;;;;;;;;;5050518;28;20084;-63
2023/10/22 10:29:13;;;;;;;3.35;1.20;;;;;;;;;;5051008;28;20037;-63
2023/10/22 10:31:39;;;;;;;4.53;1.52;;;;;;;;;;5051003;28;20029;-63
2023/10/22 10:34:05;;;;;;;2.63;1.05;;;;;;;;;;5050723;28;20045;-63
2023/10/22 10:36:32;;;;;;;5.00;1.38;;;;;;;;;;5016290;28;20041;-63
2023/10/22 10:39:16;;;;;;;6.07;1.52;;;;;;;;;;5050780;28;20048;-63
2023/10/22 10:41:52;;;;;;;5.85;1.60;;;;;;;;;;5032611;28;20056;-63
2023/10/22 10:44:18;;;;;;;6.75;2.03;;;;;;;;;;5050890;28;20403;-63
2023/10/22 10:46:44;;;;;;;4.93;1.50;;;;;;;;;;5050583;28;20458;-63
2023/10/22 10:49:10;;;;;;;6.72;1.77;;;;;;;;;;5050618;28;20056;-63
2023/10/22 10:51:36;;;;;;;4.93;1.58;;;;;;;;;;5050663;28;20044;-63
2023/10/22 10:54:02;;;;;;;6.68;2.30;;;;;;;;;;5049678;28;20156;-63
2023/10/22 10:56:47;;;;;;;10.75;2.53;;;;;;;;;;5050174;28;20095;-63
2023/10/22 10:59:34;;;;;;;8.50;2.83;;;;;;;;;;5050551;28;20037;-63
2023/10/22 11:02:10;;;;;;;3.97;2.40;;;;;;;;;;5050082;28;20044;-63
2023/10/22 11:04:37;;;;;;;3.80;2.45;;;;;;;;;;5050363;28;20572;-63
2023/10/22 11:07:03;;;;;;;5.13;2.42;;;;;;;;;;5050146;28;20048;-63
2023/10/22 11:09:31;;;;;;;5.65;2.33;;;;;;;;;;5050252;28;20148;-63
2023/10/22 11:11:58;;;;;;;3.83;2.10;;;;;;;;;;5049845;28;20573;-63
2023/10/22 11:14:25;;;;;;;7.80;2.40;;;;;;;;;;5050332;28;20037;-63
2023/10/22 11:16:56;;;;;;;5.65;3.17;;;;;;;;;;5049541;28;20052;-63
2023/10/22 11:19:23;;;;;;;6.57;2.75;;;;;;;;;;5049799;28;20045;-63
2023/10/22 11:21:49;;;;;;;6.07;2.42;;;;;;;;;;5050082;28;20040;-63
2023/10/22 11:24:15;;;;;;;5.45;2.67;;;;;;;;;;5049887;28;20048;-63
2023/10/22 11:26:42;;;;;;;4.72;1.95;;;;;;;;;;5049286;28;20037;-63
2023/10/22 11:29:09;;;;;;;9.07;1.90;;;;;;;;;;5049665;28;20099;-63
2023/10/22 11:31:35;;;;;;;4.35;1.80;;;;;;;;;;5050088;28;20041;-63
2023/10/22 11:34:14;;;;;;;4.63;1.70;;;;;;;;;;5049424;28;20412;-63
2023/10/22 11:36:40;;;;;;;3.28;1.27;;;;;;;;;;5049450;28;20033;-63
2023/10/22 11:39:14;;;;;;;3.28;1.30;;;;;;;;;;5049542;28;20048;-63
2023/10/22 11:41:40;;;;;;;2.08;0.90;;;;;;;;;;5049515;28;20060;-63
2023/10/22 11:44:08;;;;;;;2.70;1.52;;;;;;;;;;5049691;28;20037;-63
2023/10/22 11:46:43;;;;;;;4.40;1.67;;;;;;;;;;5049318;28;20045;-63
2023/10/22 11:49:10;;;;;;;4.65;1.23;;;;;;;;;;5049401;28;20465;-63
2023/10/22 11:51:46;;;;;;;2.70;0.90;;;;;;;;;;5049572;28;20124;-63
2023/10/22 11:54:12;;;;;;;2.05;1.00;;;;;;;;;;5048679;28;20053;-63
2023/10/22 11:56:38;;;;;;;2.85;0.88;;;;;;;;;;5049285;28;20260;-63
2023/10/22 11:59:06;;;;;;;4.13;1.27;;;;;;;;;;5031182;28;20122;-63
2023/10/22 12:01:32;;;;;;;3.58;1.10;;;;;;;;;;5048941;28;20052;-63
2023/10/22 12:03:59;;;;;;;2.40;1.10;;;;;;;;;;5031119;28;20416;-63
2023/10/22 12:06:25;;;;;;;4.70;1.17;;;;;;;;;;5049282;28;20044;-63
2023/10/22 12:08:51;;;;;;;5.57;1.00;;;;;;;;;;5048735;28;20137;-63
2023/10/22 12:11:17;;;;;;;2.42;1.00;;;;;;;;;;5049133;28;20068;-63
2023/10/22 12:13:43;;;;;;;3.72;1.27;;;;;;;;;;5049403;28;20422;-63
2023/10/22 12:16:09;;;;;;;3.67;1.00;;;;;;;;;;5048907;28;20033;-63
2023/10/22 12:18:35;;;;;;;2.75;0.98;;;;;;;;;;5048578;28;20059;-63
2023/10/22 12:21:01;;;;;;;2.08;0.90;;;;;;;;;;5049083;28;20044;-63
2023/10/22 12:23:27;;;;;;;5.90;0.90;;;;;;;;;;5048772;28;20076;-63
2023/10/22 12:25:53;;;;;;;3.30;1.10;;;;;;;;;;5048313;28;20103;-63
2023/10/22 12:28:24;;;;;;;4.00;1.00;;;;;;;;;;5048860;28;20144;-64
2023/10/22 12:30:50;;;;;;;4.18;1.10;;;;;;;;;;5049055;28;20048;-64
2023/10/22 12:33:16;;;;;;;3.25;1.08;;;;;;;;;;5048506;28;20079;-64
2023/10/22 12:35:42;;;;;;;3.92;0.98;;;;;;;;;;5048721;28;20061;-64
2023/10/22 12:38:08;;;;;;;2.38;1.00;;;;;;;;;;5048827;28;20041;-64
2023/10/22 12:40:35;;;;;;;2.15;1.10;;;;;;;;;;5048318;28;20523;-64
2023/10/22 12:43:01;;;;;;;2.97;1.08;;;;;;;;;;5048731;28;20479;-64
2023/10/22 12:45:27;;;;;;;3.83;1.13;;;;;;;;;;5048718;28;20071;-64
2023/10/22 12:47:53;;;;;;;2.08;1.00;;;;;;;;;;5048212;28;20399;-64
2023/10/22 12:50:19;;;;;;;3.33;1.20;;;;;;;;;;5048363;28;20046;-64
2023/10/22 12:52:45;;;;;;;1.42;0.93;;;;;;;;;;5048690;28;20037;-64
2023/10/22 12:55:11;;;;;;;5.35;1.23;;;;;;;;;;5048118;28;20045;-64
2023/10/22 12:57:37;;;;;;;3.47;1.10;;;;;;;;;;5048659;28;20510;-64
2023/10/22 13:00:10;;;;;;;3.30;0.98;;;;;;;;;;5048441;28;20291;-64
2023/10/22 13:02:36;;;;;;;3.22;1.08;;;;;;;;;;5048684;28;20053;-64
2023/10/22 13:05:03;;;;;;;4.15;0.80;;;;;;;;;;5048477;28;20048;-64
2023/10/22 13:07:29;;;;;;;3.28;1.10;;;;;;;;;;5048268;28;20047;-64
2023/10/22 13:09:55;;;;;;;2.10;0.90;;;;;;;;;;5048099;28;20045;-64
2023/10/22 13:12:21;;;;;;;5.35;1.60;;;;;;;;;;5048499;28;20033;-64
2023/10/22 13:14:47;;;;;;;2.30;1.05;;;;;;;;;;5048500;28;20037;-64
2023/10/22 13:17:13;;;;;;;3.88;2.70;;;;;;;;;;5050606;28;20044;-64
2023/10/22 13:19:39;;;;;;;4.47;1.00;;;;;;;;;;5052209;28;20403;-64
2023/10/22 13:22:05;;;;;;;2.08;0.90;;;;;;;;;;5052025;28;20051;-64
2023/10/22 13:24:31;;;;;;;1.38;0.60;;;;;;;;;;5051948;28;20051;-64
2023/10/22 13:26:57;;;;;;;3.33;1.02;;;;;;;;;;5052041;28;20045;-64
2023/10/22 13:29:23;;;;;;;2.58;0.90;;;;;;;;;;5052083;28;20051;-64
2023/10/22 13:31:49;;;;;;;4.82;0.77;;;;;;;;;;5051471;28;20036;-64
2023/10/22 13:34:15;;;;;;;2.05;0.73;;;;;;;;;;5052180;28;20037;-64
2023/10/22 13:36:41;;;;;;;3.63;0.90;;;;;;;;;;5052090;28;20051;-64
2023/10/22 13:39:09;;;;;;;1.10;0.60;;;;;;;;;;5051535;28;20045;-64
2023/10/22 13:41:35;;;;;;;1.75;0.70;;;;;;;;;;5051945;28;20145;-64
2023/10/22 13:44:01;;;;;;;2.17;0.75;;;;;;;;;;5051669;28;20080;-64
2023/10/22 13:46:27;;;;;;;3.58;0.60;;;;;;;;;;5051449;28;20076;-64
2023/10/22 13:48:53;;;;;;;2.20;0.50;;;;;;;;;;5051693;28;20037;-64
2023/10/22 13:51:18;;;;;;;2.28;0.80;;;;;;;;;;5051713;28;20033;-64
2023/10/22 13:53:44;;;;;;;1.35;0.50;;;;;;;;;;5051082;28;20533;-64
2023/10/22 13:56:10;;;;;;;1.50;0.55;;;;;;;;;;5051651;28;20045;-64
2023/10/22 13:58:36;;;;;;;1.33;0.40;;;;;;;;;;5051547;28;20120;-64
2023/10/22 14:01:02;;;;;;;2.08;0.70;;;;;;;;;;5051257;28;20155;-64
2023/10/22 14:03:28;;;;;;;2.58;0.63;;;;;;;;;;5051454;28;20037;-64
2023/10/22 14:05:54;;;;;;;0.35;0.30;;;;;;;;;;5051428;28;20551;-64
2023/10/22 14:08:20;;;;;;;2.40;0.60;;;;;;;;;;5051028;28;20415;-64
2023/10/22 14:10:46;;;;;;;2.45;0.50;;;;;;;;;;5051405;28;20128;-64
2023/10/22 14:13:14;;;;;;;1.58;0.65;;;;;;;;;;5051538;28;20115;-64
2023/10/22 14:15:42;;;;;;;1.27;0.60;;;;;;;;;;5050970;28;20037;-64
2023/10/22 14:18:08;;;;;;;1.83;0.70;;;;;;;;;;5050741;28;20124;-64
2023/10/22 14:20:34;;;;;;;2.95;0.70;;;;;;;;;;5051356;28;20123;-64
2023/10/22 14:23:00;;;;;;;2.50;0.75;;;;;;;;;;5050813;28;20530;-64
2023/10/22 14:25:26;;;;;;;3.15;0.70;;;;;;;;;;5050930;28;20033;-64
2023/10/22 14:27:52;;;;;;;6.05;0.95;;;;;;;;;;5051051;28;20033;-64
2023/10/22 14:30:18;;;;;;;2.78;0.70;;;;;;;;;;5050689;28;20041;-64
2023/10/22 14:32:44;;;;;;;2.92;0.68;;;;;;;;;;5051060;28;20399;-64
2023/10/22 14:35:11;;;;;;;1.75;0.70;;;;;;;;;;5050896;28;20047;-64
2023/10/22 14:37:37;;;;;;;3.03;0.73;;;;;;;;;;5050623;28;20050;-64
2023/10/22 14:40:04;;;;;;;3.50;0.82;;;;;;;;;;5050550;28;20049;-64
2023/10/22 14:42:30;;;;;;;3.45;0.88;;;;;;;;;;5050807;28;20489;-64